createdAt,value
2023-04-08T00:00:12.066Z,96.54
2023-04-08T00:02:39.131Z,96.34
2023-04-08T00:05:06.910Z,96.42
2023-04-08T00:07:33.798Z,96.36
2023-04-08T00:10:00.395Z,96.32
2023-04-08T00:12:27.203Z,96.35
2023-04-08T00:14:53.807Z,96.13
2023-04-08T00:17:20.599Z,96.12
2023-04-08T00:19:47.416Z,96.32
2023-04-08T00:22:14.017Z,96.31
2023-04-08T00:24:41.015Z,95.83
2023-04-08T00:27:07.827Z,96.04
2023-04-08T00:29:34.525Z,95.62
2023-04-08T00:32:01.111Z,96.07
2023-04-08T00:34:27.797Z,95.79
2023-04-08T00:36:54.434Z,95.78
2023-04-08T00:39:21.208Z,95.78
2023-04-08T00:41:47.784Z,95.78
2023-04-08T00:44:14.377Z,95.74
2023-04-08T00:46:43.733Z,95.75
2023-04-08T00:49:10.564Z,95.54
2023-04-08T00:51:37.222Z,94.97
2023-04-08T00:54:05.213Z,94.93
2023-04-08T00:56:32.996Z,95.09
2023-04-08T00:59:00.921Z,94.81
2023-04-08T01:02:09.979Z,94.55
2023-04-08T01:05:08.506Z,94.96
2023-04-08T01:07:40.486Z,94.40
2023-04-08T01:10:21.370Z,94.22
2023-04-08T01:12:55.367Z,93.93
2023-04-08T01:15:22.538Z,94.25
2023-04-08T01:17:53.182Z,94.35
2023-04-08T01:20:20.645Z,94.35
2023-04-08T01:23:22.356Z,94.28
2023-04-08T01:25:55.710Z,94.50
2023-04-08T01:28:25.348Z,94.11
2023-04-08T01:30:54.914Z,94.25
2023-04-08T01:33:22.563Z,94.21
2023-04-08T01:35:51.284Z,94.20
2023-04-08T01:38:20.573Z,94.35
2023-04-08T01:40:48.222Z,94.41
2023-04-08T01:43:18.407Z,94.28
2023-04-08T01:45:47.035Z,94.24
2023-04-08T01:48:14.879Z,94.15
2023-04-08T01:50:45.760Z,94.29
2023-04-08T01:53:13.413Z,94.11
2023-04-08T01:55:42.156Z,93.64
2023-04-08T01:58:12.413Z,93.79
2023-04-08T02:00:42.910Z,93.83
2023-04-08T02:03:13.375Z,93.45
2023-04-08T02:05:43.343Z,93.45
2023-04-08T02:08:09.970Z,93.58
2023-04-08T02:10:38.729Z,93.59
2023-04-08T02:13:05.746Z,93.39
2023-04-08T02:15:36.371Z,93.30
2023-04-08T02:18:12.574Z,93.65
2023-04-08T02:20:48.482Z,93.51
2023-04-08T02:23:22.337Z,93.68
2023-04-08T02:28:19.099Z,93.17
2023-04-08T02:30:54.867Z,93.84
2023-04-08T02:33:23.422Z,93.74
2023-04-08T02:35:54.993Z,93.55
2023-04-08T02:38:22.144Z,93.33
2023-04-08T02:40:51.414Z,93.54
2023-04-08T02:43:18.333Z,93.54
2023-04-08T02:45:45.659Z,93.77
2023-04-08T02:48:12.975Z,93.72
2023-04-08T02:50:40.804Z,93.78
2023-04-08T02:53:08.761Z,93.50
2023-04-08T02:55:35.516Z,93.57
2023-04-08T02:58:02.141Z,93.43
2023-04-08T03:00:28.850Z,93.31
2023-04-08T03:02:55.744Z,93.63
2023-04-08T03:05:22.492Z,93.33
2023-04-08T03:07:49.062Z,93.32
2023-04-08T03:10:15.987Z,93.57
2023-04-08T03:12:42.554Z,93.36
2023-04-08T03:15:09.629Z,93.16
2023-04-08T03:17:36.370Z,93.06
2023-04-08T03:20:07.025Z,92.89
2023-04-08T03:22:34.433Z,92.90
2023-04-08T03:25:01.012Z,92.99
2023-04-08T03:27:27.625Z,93.17
2023-04-08T03:29:54.282Z,92.95
2023-04-08T03:32:21.158Z,92.76
2023-04-08T03:34:50.213Z,92.80
2023-04-08T03:37:22.456Z,92.75
2023-04-08T03:39:49.450Z,92.43
2023-04-08T03:42:16.154Z,92.29
2023-04-08T03:44:42.781Z,92.48
2023-04-08T03:47:09.346Z,91.99
2023-04-08T03:49:36.352Z,91.98
2023-04-08T03:52:02.948Z,92.10
2023-04-08T03:54:29.523Z,91.95
2023-04-08T03:56:56.593Z,91.75
2023-04-08T03:59:23.345Z,91.57
2023-04-08T04:01:51.580Z,91.75
2023-04-08T04:04:18.853Z,91.85
2023-04-08T04:06:45.875Z,91.79
2023-04-08T04:09:12.779Z,91.48
2023-04-08T04:11:39.604Z,91.34
2023-04-08T04:14:06.220Z,91.22
2023-04-08T04:16:33.197Z,90.89
2023-04-08T04:19:00.105Z,91.33
2023-04-08T04:21:27.411Z,91.25
2023-04-08T04:23:54.205Z,91.06
2023-04-08T04:26:21.310Z,90.95
2023-04-08T04:28:48.150Z,90.95
2023-04-08T04:31:26.640Z,90.61
2023-04-08T04:33:53.577Z,90.78
2023-04-08T04:36:20.260Z,90.29
2023-04-08T04:38:49.627Z,90.37
2023-04-08T04:41:17.161Z,90.41
2023-04-08T04:43:43.776Z,90.58
2023-04-08T04:46:12.889Z,90.43
2023-04-08T04:48:39.537Z,90.22
2023-04-08T04:51:07.710Z,90.16
2023-04-08T04:53:34.479Z,90.38
2023-04-08T04:56:03.666Z,90.28
2023-04-08T04:58:30.965Z,90.34
2023-04-08T05:00:57.864Z,90.44
2023-04-08T05:03:25.131Z,90.19
2023-04-08T05:05:53.251Z,90.37
2023-04-08T05:08:22.717Z,90.62
2023-04-08T05:10:50.935Z,90.66
2023-04-08T05:13:18.689Z,90.63
2023-04-08T05:15:47.805Z,90.52
2023-04-08T05:18:14.980Z,90.74
2023-04-08T05:20:41.745Z,90.92
2023-04-08T05:23:08.951Z,90.76
2023-04-08T05:25:35.806Z,91.49
2023-04-08T05:28:05.894Z,92.19
2023-04-08T05:30:34.940Z,92.16
2023-04-08T05:33:01.952Z,92.08
2023-04-08T05:35:29.383Z,92.97
2023-04-08T05:37:56.500Z,93.32
2023-04-08T05:40:23.197Z,93.56
2023-04-08T05:42:49.986Z,93.83
2023-04-08T05:45:16.819Z,93.36
2023-04-08T05:47:43.752Z,93.42
2023-04-08T05:50:11.694Z,93.53
2023-04-08T05:52:43.798Z,93.09
2023-04-08T05:55:11.366Z,93.36
2023-04-08T05:57:38.212Z,93.53
2023-04-08T06:00:10.819Z,93.51
2023-04-08T06:02:39.941Z,93.89
2023-04-08T06:05:07.053Z,93.93
2023-04-08T06:07:34.473Z,94.15
2023-04-08T06:10:01.305Z,94.21
2023-04-08T06:12:27.963Z,94.32
2023-04-08T06:14:57.431Z,94.30
2023-04-08T06:17:24.057Z,94.55
2023-04-08T06:19:50.742Z,94.35
2023-04-08T06:22:17.517Z,94.40
2023-04-08T06:24:44.172Z,94.80
2023-04-08T06:27:10.828Z,94.68
2023-04-08T06:29:37.428Z,94.91
2023-04-08T06:32:04.441Z,94.64
2023-04-08T06:34:31.116Z,94.34
2023-04-08T06:36:57.704Z,93.60
2023-04-08T06:39:24.561Z,93.73
2023-04-08T06:41:51.381Z,93.74
2023-04-08T06:44:18.368Z,93.73
2023-04-08T06:46:44.935Z,93.32
2023-04-08T06:49:13.040Z,93.91
2023-04-08T06:51:39.641Z,93.90
2023-04-08T06:54:06.295Z,93.13
2023-04-08T06:56:32.924Z,93.66
2023-04-08T06:58:59.687Z,93.17
2023-04-08T07:01:26.561Z,93.16
2023-04-08T07:03:53.302Z,92.78
2023-04-08T07:06:19.915Z,92.89
2023-04-08T07:08:46.579Z,93.06
2023-04-08T07:11:13.230Z,92.63
2023-04-08T07:13:41.924Z,92.94
2023-04-08T07:16:08.589Z,92.98
2023-04-08T07:18:35.651Z,92.97
2023-04-08T07:21:02.572Z,93.52
2023-04-08T07:23:29.217Z,93.28
2023-04-08T07:25:55.861Z,92.50
2023-04-08T07:28:22.529Z,92.36
2023-04-08T07:30:49.126Z,91.96
2023-04-08T07:33:16.298Z,92.62
2023-04-08T07:35:43.081Z,92.90
2023-04-08T07:38:11.722Z,92.80
2023-04-08T07:40:38.347Z,91.91
2023-04-08T07:43:05.002Z,92.43
2023-04-08T07:45:31.808Z,92.23
2023-04-08T07:47:58.559Z,92.75
2023-04-08T07:50:25.252Z,93.11
2023-04-08T07:52:53.442Z,92.33
2023-04-08T07:55:20.506Z,93.20
2023-04-08T07:57:47.464Z,91.54
2023-04-08T08:00:20.935Z,91.67
2023-04-08T08:02:48.819Z,91.32
2023-04-08T08:05:15.628Z,90.97
2023-04-08T08:07:42.505Z,92.03
2023-04-08T08:10:09.970Z,91.21
2023-04-08T08:12:36.792Z,92.07
2023-04-08T08:15:06.332Z,91.36
2023-04-08T08:17:35.731Z,91.53
2023-04-08T08:20:04.415Z,91.77
2023-04-08T08:22:31.003Z,92.09
2023-04-08T08:24:58.235Z,90.84
2023-04-08T08:27:26.185Z,90.20
2023-04-08T08:29:53.085Z,88.96
2023-04-08T08:32:19.865Z,89.45
2023-04-08T08:34:46.634Z,89.38
2023-04-08T08:37:13.245Z,89.39
2023-04-08T08:39:40.315Z,89.40
2023-04-08T08:42:19.249Z,88.81
2023-04-08T08:44:45.939Z,88.48
2023-04-08T08:47:12.573Z,86.61
2023-04-08T08:49:39.251Z,86.77
2023-04-08T08:52:07.079Z,87.26
2023-04-08T08:54:33.724Z,87.02
2023-04-08T08:57:00.597Z,86.59
2023-04-08T08:59:27.866Z,86.48
2023-04-08T09:01:54.533Z,86.53
2023-04-08T09:04:23.065Z,85.49
2023-04-08T09:07:08.907Z,85.24
2023-04-08T09:09:51.851Z,84.70
2023-04-08T09:12:19.137Z,85.14
2023-04-08T09:14:46.575Z,85.13
2023-04-08T09:17:13.278Z,85.02
2023-04-08T09:19:40.620Z,83.78
2023-04-08T09:22:09.087Z,83.21
2023-04-08T09:24:37.468Z,83.07
2023-04-08T09:27:05.804Z,83.17
2023-04-08T09:29:35.241Z,81.46
2023-04-08T09:32:03.735Z,81.60
2023-04-08T09:34:34.588Z,81.27
2023-04-08T09:37:01.567Z,80.32
2023-04-08T09:39:28.184Z,80.96
2023-04-08T09:41:59.200Z,80.48
2023-04-08T09:44:28.769Z,79.99
2023-04-08T09:47:01.569Z,79.86
2023-04-08T09:49:28.197Z,80.13
2023-04-08T09:52:05.371Z,80.27
2023-04-08T09:54:37.239Z,79.61
2023-04-08T09:57:13.891Z,80.30
2023-04-08T09:59:49.627Z,80.02
2023-04-08T10:02:22.622Z,79.01
2023-04-08T10:04:52.679Z,78.62
2023-04-08T10:07:19.445Z,78.66
2023-04-08T10:09:46.417Z,75.83
2023-04-08T10:12:13.063Z,76.21
2023-04-08T10:14:39.712Z,76.39
2023-04-08T10:17:27.658Z,75.40
2023-04-08T10:19:54.970Z,74.57
2023-04-08T10:22:33.943Z,73.99
2023-04-08T10:25:16.936Z,72.93
2023-04-08T10:27:45.176Z,72.93
2023-04-08T10:30:31.953Z,71.81
2023-04-08T10:33:00.418Z,70.56
2023-04-08T10:35:36.766Z,71.16
2023-04-08T10:38:04.009Z,72.16
2023-04-08T10:40:39.175Z,68.83
2023-04-08T10:43:06.222Z,68.78
2023-04-08T10:45:33.363Z,66.85
2023-04-08T10:48:11.920Z,66.86
2023-04-08T10:50:38.501Z,66.72
2023-04-08T10:53:05.144Z,66.05
2023-04-08T10:55:32.435Z,66.35
2023-04-08T10:58:17.699Z,66.33
2023-04-08T11:00:44.388Z,66.51
2023-04-08T11:03:13.715Z,66.65
2023-04-08T11:05:42.134Z,66.42
2023-04-08T11:08:08.750Z,66.30
2023-04-08T11:10:39.181Z,66.99
2023-04-08T11:13:10.034Z,66.69
2023-04-08T11:15:37.478Z,67.41
2023-04-08T11:18:06.084Z,68.11
2023-04-08T11:20:37.228Z,68.50
2023-04-08T11:23:03.915Z,68.04
2023-04-08T11:25:30.723Z,68.06
2023-04-08T11:27:57.628Z,67.87
2023-04-08T11:30:24.622Z,67.96
2023-04-08T11:32:54.033Z,67.91
2023-04-08T11:35:20.965Z,67.92
2023-04-08T11:37:49.864Z,67.92
2023-04-08T11:40:22.021Z,67.62
2023-04-08T11:42:48.911Z,67.62
2023-04-08T11:45:20.086Z,67.65
2023-04-08T11:47:47.786Z,67.09
2023-04-08T11:50:24.860Z,67.63
2023-04-08T11:52:52.765Z,67.04
2023-04-08T11:55:30.407Z,66.95
2023-04-08T11:58:02.132Z,66.59
2023-04-08T12:00:28.758Z,66.86
2023-04-08T12:02:55.892Z,67.15
2023-04-08T12:05:22.535Z,67.06
2023-04-08T12:07:49.171Z,66.38
2023-04-08T12:10:16.246Z,66.21
2023-04-08T12:12:42.877Z,66.56
2023-04-08T12:15:10.230Z,67.83
2023-04-08T12:17:39.070Z,67.57
2023-04-08T12:20:06.746Z,66.93
2023-04-08T12:22:33.767Z,66.21
2023-04-08T12:25:00.470Z,64.75
2023-04-08T12:27:27.061Z,66.14
2023-04-08T12:29:53.645Z,64.74
2023-04-08T12:32:20.622Z,65.42
2023-04-08T12:34:47.480Z,65.48
2023-04-08T12:37:14.123Z,65.60
2023-04-08T12:39:40.783Z,64.45
2023-04-08T12:42:07.359Z,64.62
2023-04-08T12:44:33.979Z,64.28
2023-04-08T12:47:00.593Z,63.78
2023-04-08T12:49:28.153Z,64.93
2023-04-08T12:51:55.219Z,65.19
2023-04-08T12:54:21.918Z,65.59
2023-04-08T12:56:49.106Z,65.07
2023-04-08T12:59:16.193Z,65.09
2023-04-08T13:01:43.380Z,65.17
2023-04-08T13:04:10.223Z,65.86
2023-04-08T13:06:36.875Z,65.77
2023-04-08T13:09:03.787Z,66.49
2023-04-08T13:11:34.237Z,67.88
2023-04-08T13:14:00.895Z,67.61
2023-04-08T13:16:27.874Z,67.25
2023-04-08T13:18:54.522Z,67.75
2023-04-08T13:21:21.551Z,67.82
2023-04-08T13:23:48.583Z,67.78
2023-04-08T13:26:15.206Z,68.08
2023-04-08T13:28:55.875Z,68.74
2023-04-08T13:31:29.360Z,68.93
2023-04-08T13:33:58.229Z,69.19
2023-04-08T13:36:25.125Z,69.93
2023-04-08T13:38:52.194Z,69.23
2023-04-08T13:41:21.252Z,69.69
2023-04-08T13:43:47.883Z,69.54
2023-04-08T13:46:18.601Z,69.86
2023-04-08T13:48:46.091Z,70.50
2023-04-08T13:51:12.751Z,70.77
2023-04-08T13:53:39.368Z,70.43
2023-04-08T13:56:06.213Z,70.98
2023-04-08T13:58:32.822Z,71.62
2023-04-08T14:00:59.435Z,72.02
2023-04-08T14:03:26.919Z,72.38
2023-04-08T14:05:53.932Z,71.90
2023-04-08T14:08:25.722Z,71.93
2023-04-08T14:11:01.481Z,71.45
2023-04-08T14:13:28.184Z,71.60
2023-04-08T14:15:58.471Z,71.24
2023-04-08T14:18:25.969Z,71.11
2023-04-08T14:20:52.774Z,71.68
2023-04-08T14:23:19.348Z,71.67
2023-04-08T14:25:45.933Z,71.65
2023-04-08T14:28:12.698Z,71.39
2023-04-08T14:30:39.306Z,71.44
2023-04-08T14:33:06.409Z,71.60
2023-04-08T14:35:33.158Z,71.91
2023-04-08T14:38:00.356Z,71.81
2023-04-08T14:40:26.967Z,71.91
2023-04-08T14:42:54.081Z,71.76
2023-04-08T14:45:20.845Z,71.84
2023-04-08T14:47:47.486Z,71.93
2023-04-08T14:50:14.216Z,72.46
2023-04-08T14:52:41.122Z,72.37
2023-04-08T14:55:07.978Z,72.97
2023-04-08T14:57:35.019Z,73.21
2023-04-08T15:00:02.023Z,73.73
2023-04-08T15:02:29.090Z,73.50
2023-04-08T15:04:56.123Z,73.47
2023-04-08T15:07:22.833Z,73.93
2023-04-08T15:09:49.407Z,73.53
2023-04-08T15:12:16.024Z,73.20
2023-04-08T15:14:42.599Z,73.50
2023-04-08T15:17:10.328Z,73.31
2023-04-08T15:19:36.979Z,73.82
2023-04-08T15:22:04.126Z,74.18
2023-04-08T15:24:30.763Z,74.08
2023-04-08T15:26:59.542Z,73.75
2023-04-08T15:29:26.286Z,73.50
2023-04-08T15:31:52.905Z,73.40
2023-04-08T15:34:19.476Z,74.13
2023-04-08T15:36:47.529Z,74.22
2023-04-08T15:39:14.265Z,74.04
2023-04-08T15:41:40.889Z,74.37
2023-04-08T15:44:07.505Z,75.04
2023-04-08T15:46:35.557Z,75.07
2023-04-08T15:49:03.948Z,75.15
2023-04-08T15:51:30.568Z,74.87
2023-04-08T15:53:57.966Z,74.60
2023-04-08T15:56:24.763Z,74.17
2023-04-08T15:58:52.403Z,74.38
2023-04-08T16:01:20.381Z,74.50
2023-04-08T16:03:47.092Z,74.81
2023-04-08T16:06:13.885Z,74.87
2023-04-08T16:08:40.761Z,75.15
2023-04-08T16:11:08.247Z,74.92
2023-04-08T16:13:35.129Z,74.84
2023-04-08T16:16:04.318Z,74.98
2023-04-08T16:18:31.239Z,75.05
2023-04-08T16:20:58.025Z,74.81
2023-04-08T16:23:25.044Z,74.81
2023-04-08T16:25:52.289Z,74.60
2023-04-08T16:28:18.891Z,74.69
2023-04-08T16:30:48.004Z,74.29
2023-04-08T16:33:15.088Z,74.83
2023-04-08T16:35:42.143Z,74.80
2023-04-08T16:38:09.179Z,74.76
2023-04-08T16:40:35.795Z,74.76
2023-04-08T16:43:04.590Z,74.77
2023-04-08T16:45:32.759Z,74.72
2023-04-08T16:48:00.709Z,74.70
2023-04-08T16:50:28.627Z,75.04
2023-04-08T16:52:55.365Z,74.55
2023-04-08T16:55:25.095Z,74.86
2023-04-08T16:57:51.747Z,74.91
2023-04-08T17:00:21.023Z,75.14
2023-04-08T17:02:47.982Z,75.43
2023-04-08T17:05:14.729Z,75.68
2023-04-08T17:07:41.380Z,75.31
2023-04-08T17:10:08.678Z,75.43
2023-04-08T17:12:36.441Z,75.58
2023-04-08T17:15:03.743Z,75.48
2023-04-08T17:17:30.499Z,75.81
2023-04-08T17:19:57.202Z,75.75
2023-04-08T17:22:23.795Z,75.82
2023-04-08T17:24:50.422Z,75.76
2023-04-08T17:27:17.237Z,75.83
2023-04-08T17:29:46.153Z,75.78
2023-04-08T17:32:13.389Z,75.31
2023-04-08T17:34:41.160Z,75.36
2023-04-08T17:37:08.287Z,75.53
2023-04-08T17:39:40.841Z,75.31
2023-04-08T17:42:08.457Z,75.95
2023-04-08T17:44:35.991Z,75.60
2023-04-08T17:47:03.842Z,75.94
2023-04-08T17:49:30.525Z,75.66
2023-04-08T17:51:58.267Z,75.84
2023-04-08T17:54:25.165Z,75.88
2023-04-08T17:56:51.914Z,76.13
2023-04-08T17:59:18.630Z,76.14
2023-04-08T18:01:45.381Z,76.64
2023-04-08T18:04:12.890Z,76.37
2023-04-08T18:06:39.705Z,76.63
2023-04-08T18:09:06.283Z,76.23
2023-04-08T18:11:33.022Z,76.43
2023-04-08T18:13:59.672Z,76.35
2023-04-08T18:16:26.276Z,76.42
2023-04-08T18:18:52.949Z,76.50
2023-04-08T18:21:19.898Z,76.35
2023-04-08T18:23:49.618Z,76.66
2023-04-08T18:26:16.627Z,76.84
2023-04-08T18:28:43.280Z,76.43
2023-04-08T18:31:10.334Z,76.71
2023-04-08T18:33:39.406Z,76.92
2023-04-08T18:36:10.675Z,76.88
2023-04-08T18:38:38.422Z,77.03
2023-04-08T18:41:05.051Z,77.11
2023-04-08T18:43:34.387Z,76.68
2023-04-08T18:46:03.492Z,76.86
2023-04-08T18:48:30.437Z,76.73
2023-04-08T18:50:57.704Z,77.27
2023-04-08T18:53:24.374Z,77.43
2023-04-08T18:55:53.813Z,77.07
2023-04-08T18:58:23.026Z,77.20
2023-04-08T19:00:49.727Z,77.50
2023-04-08T19:03:16.464Z,77.46
2023-04-08T19:05:43.186Z,77.11
2023-04-08T19:08:09.786Z,77.37
2023-04-08T19:10:38.643Z,77.72
2023-04-08T19:13:05.418Z,77.47
2023-04-08T19:15:32.162Z,77.58
2023-04-08T19:17:59.248Z,77.62
2023-04-08T19:20:28.664Z,77.53
2023-04-08T19:22:57.790Z,78.04
2023-04-08T19:25:24.368Z,77.68
2023-04-08T19:27:51.268Z,77.78
2023-04-08T19:30:17.935Z,77.63
2023-04-08T19:32:46.612Z,78.25
2023-04-08T19:35:13.599Z,77.74
2023-04-08T19:37:40.633Z,77.67
2023-04-08T19:40:08.730Z,77.38
2023-04-08T19:42:35.628Z,77.98
2023-04-08T19:45:02.776Z,77.91
2023-04-08T19:47:29.772Z,78.41
2023-04-08T19:49:58.353Z,78.50
2023-04-08T19:52:25.180Z,78.34
2023-04-08T19:54:52.380Z,78.47
2023-04-08T19:57:19.979Z,78.68
2023-04-08T19:59:48.792Z,78.78
2023-04-08T20:02:15.727Z,78.37
2023-04-08T20:04:42.640Z,78.75
2023-04-08T20:07:09.484Z,79.60
2023-04-08T20:09:36.245Z,79.21
2023-04-08T20:12:06.170Z,78.81
2023-04-08T20:14:34.130Z,78.98
2023-04-08T20:17:00.807Z,78.66
2023-04-08T20:19:27.419Z,78.68
2023-04-08T20:21:54.265Z,78.85
2023-04-08T20:24:20.869Z,78.63
2023-04-08T20:26:47.741Z,78.62
2023-04-08T20:29:14.409Z,79.23
2023-04-08T20:31:41.104Z,79.38
2023-04-08T20:34:08.635Z,78.94
2023-04-08T20:36:35.484Z,78.77
2023-04-08T20:39:02.556Z,78.81
2023-04-08T20:41:29.599Z,78.98
2023-04-08T20:43:56.216Z,78.86
2023-04-08T20:46:23.255Z,78.92
2023-04-08T20:48:50.412Z,78.82
2023-04-08T20:51:17.670Z,79.09
2023-04-08T20:53:44.646Z,78.80
2023-04-08T20:56:11.508Z,78.86
2023-04-08T20:58:38.138Z,79.01
2023-04-08T21:01:04.915Z,79.12
2023-04-08T21:03:31.628Z,79.17
2023-04-08T21:05:58.739Z,79.17
2023-04-08T21:08:25.589Z,79.19
2023-04-08T21:10:54.264Z,79.16
2023-04-08T21:13:21.608Z,79.41
2023-04-08T21:15:48.260Z,79.26
2023-04-08T21:18:14.882Z,79.29
2023-04-08T21:20:44.585Z,79.05
2023-04-08T21:23:11.221Z,78.98
2023-04-08T21:25:37.768Z,79.24
2023-04-08T21:28:04.349Z,79.28
2023-04-08T21:30:30.955Z,78.62
2023-04-08T21:32:58.071Z,78.72
2023-04-08T21:35:24.685Z,78.51
2023-04-08T21:37:51.599Z,78.45
2023-04-08T21:40:18.297Z,78.78
2023-04-08T21:42:46.086Z,78.48
2023-04-08T21:45:12.773Z,77.89
2023-04-08T21:47:39.476Z,78.09
2023-04-08T21:50:06.993Z,78.00
2023-04-08T21:52:33.856Z,78.13
2023-04-08T21:55:01.025Z,78.04
2023-04-08T21:57:28.176Z,78.18
2023-04-08T21:59:54.743Z,78.15
2023-04-08T22:02:21.745Z,78.22
2023-04-08T22:04:49.022Z,78.07
2023-04-08T22:07:18.009Z,78.02
2023-04-08T22:09:44.848Z,78.08
2023-04-08T22:12:11.636Z,77.77
2023-04-08T22:14:38.256Z,77.95
2023-04-08T22:17:05.782Z,78.08
2023-04-08T22:19:32.486Z,78.20
2023-04-08T22:21:59.068Z,78.32
2023-04-08T22:24:27.742Z,78.46
2023-04-08T22:26:54.641Z,78.59
2023-04-08T22:29:21.338Z,78.11
2023-04-08T22:31:47.997Z,78.63
2023-04-08T22:34:14.647Z,78.53
2023-04-08T22:36:41.740Z,78.63
2023-04-08T22:39:08.669Z,79.00
2023-04-08T22:41:35.594Z,78.84
2023-04-08T22:44:02.278Z,78.75
2023-04-08T22:46:28.968Z,78.92
2023-04-08T22:48:55.748Z,79.09
2023-04-08T22:51:22.675Z,78.82
2023-04-08T22:53:49.441Z,79.28
2023-04-08T22:56:16.207Z,79.76
2023-04-08T22:58:42.886Z,79.53
2023-04-08T23:01:14.909Z,79.64
2023-04-08T23:03:41.947Z,79.64
2023-04-08T23:06:08.774Z,80.23
2023-04-08T23:08:35.669Z,80.20
2023-04-08T23:11:02.292Z,80.00
2023-04-08T23:13:29.251Z,79.88
2023-04-08T23:15:55.987Z,79.85
2023-04-08T23:18:22.686Z,80.05
2023-04-08T23:20:52.988Z,80.42
2023-04-08T23:23:20.744Z,80.18
2023-04-08T23:25:48.005Z,80.57
2023-04-08T23:28:14.601Z,80.40
2023-04-08T23:30:41.282Z,80.57
2023-04-08T23:33:08.243Z,80.85
2023-04-08T23:35:34.891Z,80.56
2023-04-08T23:38:01.732Z,80.43
2023-04-08T23:40:28.332Z,80.41
2023-04-08T23:42:55.409Z,80.53
2023-04-08T23:45:22.010Z,80.49
2023-04-08T23:47:48.635Z,80.89
2023-04-08T23:50:15.745Z,81.29
2023-04-08T23:52:42.373Z,80.95
2023-04-08T23:55:09.401Z,80.94
2023-04-08T23:57:36.027Z,80.99
